Time;durP1;ratioP1;P1;durP2;ratioP2;P2;SDS_P1;SDS_P2;PMS_P1;PMS_P2;Temp;Humidity;BMP_temperature;BMP_pressure;BME280_temperature;BME280_humidity;BME280_pressure;Samples;Min_cycle;Max_cycle;Signal;HPM_P1;HPM_P2
2021/06/23 00:01:02;;;;;;;11.93;10.60;;;21.10;99.90;;;;;;4951609;28;20226;-78
2021/06/23 00:03:28;;;;;;;12.13;10.50;;;21.20;99.90;;;;;;4952018;29;20222;-77
2021/06/23 00:05:53;;;;;;;13.80;10.10;;;21.10;99.90;;;;;;4950588;28;20452;-78
2021/06/23 00:08:19;;;;;;;11.13;10.03;;;20.90;99.90;;;;;;4950891;29;20527;-77
2021/06/23 00:10:46;;;;;;;11.30;9.50;;;21.00;99.90;;;;;;4948857;28;20191;-78
2021/06/23 00:13:14;;;;;;;13.00;11.80;;;21.10;99.90;;;;;;4950317;28;20192;-79
2021/06/23 00:15:39;;;;;;;12.30;11.00;;;21.00;99.90;;;;;;4950194;29;20469;-78
2021/06/23 00:18:05;;;;;;;11.40;10.30;;;21.00;99.90;;;;;;4952210;28;20474;-76
2021/06/23 00:20:32;;;;;;;10.80;9.80;;;20.90;99.90;;;;;;4945800;28;20204;-79
2021/06/23 00:22:59;;;;;;;12.43;11.23;;;20.90;99.90;;;;;;4950654;29;20561;-78
2021/06/23 00:25:25;;;;;;;12.90;11.60;;;21.00;99.90;;;;;;4952619;28;20428;-78
2021/06/23 00:27:50;;;;;;;13.43;11.23;;;20.90;99.90;;;;;;4950524;28;20436;-78
2021/06/23 00:30:17;;;;;;;12.03;10.73;;;21.10;99.90;;;;;;4950224;28;20494;-78
2021/06/23 00:32:44;;;;;;;12.53;11.33;;;21.10;99.90;;;;;;4951845;29;20235;-78
2021/06/23 00:35:10;;;;;;;12.40;11.10;;;21.10;99.90;;;;;;4948754;28;20447;-76
2021/06/23 00:37:37;;;;;;;12.27;11.07;;;21.00;99.90;;;;;;4948798;28;20455;-77
2021/06/23 00:40:05;;;;;;;11.90;10.80;;;21.10;99.90;;;;;;4951573;28;20439;-78
2021/06/23 00:42:30;;;;;;;11.57;10.37;;;21.10;99.90;;;;;;4950705;28;20538;-78
2021/06/23 00:44:56;;;;;;;13.00;11.60;;;21.20;99.90;;;;;;4949364;28;20479;-77
2021/06/23 00:47:26;;;;;;;11.13;10.03;;;21.30;99.90;;;;;;4950249;28;20198;-78
2021/06/23 00:49:52;;;;;;;13.20;11.80;;;21.20;99.90;;;;;;4951903;29;20190;-78
2021/06/23 00:52:18;;;;;;;11.90;10.70;;;21.10;99.90;;;;;;4950350;28;20577;-78
2021/06/23 00:54:49;;;;;;;11.40;9.30;;;21.20;99.90;;;;;;4949102;28;20279;-78
2021/06/23 00:57:16;;;;;;;11.70;10.50;;;21.20;99.90;;;;;;4949015;29;20512;-78
2021/06/23 00:59:43;;;;;;;12.17;10.97;;;21.10;99.90;;;;;;4949842;28;20455;-78
2021/06/23 01:02:09;;;;;;;11.40;10.20;;;21.10;99.90;;;;;;4945800;29;20505;-78
2021/06/23 01:04:35;;;;;;;14.13;12.03;;;21.10;99.90;;;;;;4952743;28;20489;-78
2021/06/23 01:07:01;;;;;;;12.20;11.00;;;21.00;99.90;;;;;;4952449;28;20478;-79
2021/06/23 01:09:27;;;;;;;16.30;12.60;;;20.90;99.90;;;;;;4951484;29;20194;-78
2021/06/23 01:12:39;;;;;;;12.10;11.00;;;21.00;99.90;;;;;;4950429;28;20477;-79
2021/06/23 01:15:06;;;;;;;13.67;11.30;;;21.00;99.90;;;;;;4882279;29;20890;-78
2021/06/23 01:17:34;;;;;;;12.63;11.33;;;20.90;99.90;;;;;;4950898;29;20474;-77
2021/06/23 01:20:13;;;;;;;13.00;11.70;;;20.80;99.90;;;;;;4950261;28;21152;-78
2021/06/23 01:22:42;;;;;;;15.83;12.40;;;20.90;99.90;;;;;;4951434;29;20486;-78
2021/06/23 01:25:10;;;;;;;13.33;11.97;;;20.80;99.90;;;;;;4949357;28;20669;-77
2021/06/23 01:27:37;;;;;;;13.30;11.23;;;20.80;99.90;;;;;;4951474;28;20828;-77
2021/06/23 01:30:05;;;;;;;14.10;11.37;;;20.80;99.90;;;;;;4951099;28;20839;-80
2021/06/23 01:32:31;;;;;;;13.77;11.33;;;20.80;99.90;;;;;;4948549;28;20553;-76
2021/06/23 01:34:57;;;;;;;16.20;10.37;;;20.90;99.90;;;;;;4953254;28;20534;-78
2021/06/23 01:37:23;;;;;;;12.70;11.40;;;20.80;99.90;;;;;;4950813;28;20443;-78
2021/06/23 01:39:49;;;;;;;12.57;10.50;;;20.80;99.90;;;;;;4951345;28;20451;-77
2021/06/23 01:42:14;;;;;;;12.83;11.60;;;20.80;99.90;;;;;;4949194;28;20226;-78
2021/06/23 01:44:40;;;;;;;14.67;11.27;;;20.60;99.90;;;;;;4949546;29;20195;-78
2021/06/23 01:47:06;;;;;;;13.00;11.30;;;20.50;99.90;;;;;;4948862;29;20226;-79
2021/06/23 01:49:32;;;;;;;13.80;10.77;;;20.50;99.90;;;;;;4948449;28;20206;-79
2021/06/23 01:51:58;;;;;;;12.23;10.40;;;20.50;99.90;;;;;;4951645;28;20214;-77
2021/06/23 01:54:24;;;;;;;10.87;9.77;;;20.40;99.90;;;;;;4947527;28;20199;-77
2021/06/23 01:56:49;;;;;;;15.10;11.40;;;20.60;99.90;;;;;;4949150;28;20520;-78
2021/06/23 01:59:15;;;;;;;11.83;10.73;;;20.40;99.90;;;;;;4953331;28;20202;-78
2021/06/23 02:01:44;;;;;;;12.63;11.27;;;20.40;99.90;;;;;;4950872;28;20744;-78
2021/06/23 02:04:17;;;;;;;12.97;10.33;;;20.50;99.90;;;;;;4953175;28;20215;-79
2021/06/23 02:06:49;;;;;;;11.70;9.90;;;20.50;99.90;;;;;;4953874;28;20524;-77
2021/06/23 02:09:49;;;;;;;13.30;9.30;;;20.40;99.90;;;;;;4952684;28;20492;-77
2021/06/23 02:12:26;;;;;;;11.53;9.40;;;20.40;99.90;;;;;;4944845;29;21040;-77
2021/06/23 02:14:56;;;;;;;17.13;11.83;;;20.50;99.90;;;;;;4948081;28;21046;-77
2021/06/23 02:17:24;;;;;;;13.10;10.60;;;20.60;99.90;;;;;;4948060;28;20941;-79
2021/06/23 02:19:50;;;;;;;11.20;10.20;;;20.60;99.90;;;;;;4955103;28;20533;-77
2021/06/23 02:22:36;;;;;;;12.53;11.20;;;20.40;99.90;;;;;;4951244;28;20470;-76
2021/06/23 02:25:08;;;;;;;10.83;9.73;;;20.30;99.90;;;;;;4948376;29;20443;-77
2021/06/23 02:27:35;;;;;;;11.77;10.60;;;20.30;99.90;;;;;;4949902;28;20983;-78
2021/06/23 02:30:01;;;;;;;13.83;10.63;;;20.40;99.90;;;;;;4948750;29;20454;-77
2021/06/23 02:32:30;;;;;;;14.20;10.77;;;20.40;99.90;;;;;;4949177;28;20483;-79
2021/06/23 02:34:58;;;;;;;12.50;11.20;;;20.40;99.90;;;;;;4955173;28;20442;-78
2021/06/23 02:37:25;;;;;;;12.30;11.10;;;20.50;99.90;;;;;;4954833;28;20487;-76
2021/06/23 02:39:52;;;;;;;14.80;11.60;;;20.30;99.90;;;;;;4949043;28;20457;-78
2021/06/23 02:42:18;;;;;;;14.60;11.23;;;20.20;99.90;;;;;;4948849;29;20594;-78
2021/06/23 02:44:44;;;;;;;15.47;12.50;;;20.40;99.90;;;;;;4949772;28;20432;-78
2021/06/23 02:47:16;;;;;;;12.53;11.30;;;20.40;99.90;;;;;;4951363;28;20454;-78
2021/06/23 02:49:41;;;;;;;14.67;10.97;;;20.50;99.90;;;;;;4953328;28;20203;-78
2021/06/23 02:52:07;;;;;;;14.63;12.10;;;20.50;99.90;;;;;;4951372;28;20471;-76
2021/06/23 02:54:34;;;;;;;15.37;12.70;;;20.50;99.90;;;;;;4955061;28;20286;-77
2021/06/23 02:57:00;;;;;;;16.07;13.20;;;20.40;99.90;;;;;;4951224;28;20708;-79
2021/06/23 02:59:27;;;;;;;16.53;13.07;;;20.30;99.90;;;;;;4953161;28;20505;-76
2021/06/23 03:01:52;;;;;;;16.47;13.87;;;20.20;99.90;;;;;;4949367;28;20594;-76
2021/06/23 03:04:18;;;;;;;18.07;12.93;;;20.20;99.90;;;;;;4949880;28;20542;-77
2021/06/23 03:06:44;;;;;;;19.13;13.73;;;20.20;99.90;;;;;;4950096;28;20242;-76
2021/06/23 03:09:09;;;;;;;15.30;13.63;;;20.10;99.90;;;;;;4949090;28;20191;-79
2021/06/23 03:11:37;;;;;;;17.13;14.43;;;20.00;99.90;;;;;;4950109;28;20345;-78
2021/06/23 03:14:04;;;;;;;14.50;13.00;;;20.00;99.90;;;;;;4953344;28;20235;-76
2021/06/23 03:16:30;;;;;;;17.53;13.60;;;20.00;99.90;;;;;;4952733;28;20444;-76
2021/06/23 03:18:56;;;;;;;15.70;14.10;;;20.10;99.90;;;;;;4957667;28;20454;-77
2021/06/23 03:21:22;;;;;;;17.10;14.80;;;20.00;99.90;;;;;;4946038;28;20470;-77
2021/06/23 03:23:49;;;;;;;15.70;13.17;;;20.00;99.90;;;;;;4946756;28;20573;-78
2021/06/23 03:26:16;;;;;;;18.37;14.60;;;20.00;99.90;;;;;;4945126;29;20458;-80
2021/06/23 03:28:41;;;;;;;16.80;13.17;;;20.00;99.90;;;;;;4947964;28;20885;-80
2021/06/23 03:31:08;;;;;;;15.77;13.70;;;20.00;99.90;;;;;;4947519;29;20474;-80
2021/06/23 03:33:34;;;;;;;15.20;13.60;;;20.00;99.90;;;;;;4950004;28;20199;-80
2021/06/23 03:36:00;;;;;;;15.90;14.20;;;19.90;99.90;;;;;;4949579;28;20435;-80
2021/06/23 03:38:25;;;;;;;15.27;13.63;;;20.00;99.90;;;;;;4950860;28;20199;-80
2021/06/23 03:40:51;;;;;;;17.97;14.27;;;20.00;99.90;;;;;;4947385;28;20675;-79
2021/06/23 03:43:19;;;;;;;16.83;15.07;;;20.00;99.90;;;;;;4949269;28;20261;-80
2021/06/23 03:45:46;;;;;;;15.27;13.70;;;19.70;99.90;;;;;;4947166;28;20195;-79
2021/06/23 03:48:12;;;;;;;17.47;13.33;;;19.60;99.90;;;;;;4949679;28;21023;-77
2021/06/23 03:50:38;;;;;;;15.23;13.63;;;19.30;99.90;;;;;;4949788;28;20439;-78
2021/06/23 03:53:04;;;;;;;14.07;12.67;;;19.30;99.90;;;;;;4947197;28;20273;-78
2021/06/23 03:55:31;;;;;;;14.97;13.03;;;19.30;99.90;;;;;;4948422;28;20513;-78
2021/06/23 03:57:57;;;;;;;15.83;13.50;;;19.10;99.90;;;;;;4946224;28;20465;-76
2021/06/23 04:00:26;;;;;;;18.13;15.00;;;19.20;99.90;;;;;;4946048;28;20901;-77
2021/06/23 04:02:51;;;;;;;17.53;15.20;;;19.30;99.90;;;;;;4946515;28;20482;-77
2021/06/23 04:05:17;;;;;;;15.13;13.43;;;19.20;99.90;;;;;;4945706;28;20441;-76
2021/06/23 04:07:43;;;;;;;15.60;13.10;;;19.30;99.90;;;;;;4945924;28;20796;-76
2021/06/23 04:10:09;;;;;;;16.10;14.27;;;19.50;99.90;;;;;;4947000;29;20199;-76
2021/06/23 04:12:36;;;;;;;14.83;13.30;;;19.50;99.90;;;;;;4945129;28;20574;-77
2021/06/23 04:15:04;;;;;;;16.00;13.23;;;19.60;99.90;;;;;;4945848;28;20546;-76
2021/06/23 04:17:29;;;;;;;17.37;12.63;;;19.70;99.90;;;;;;4945278;29;20450;-77
2021/06/23 04:19:55;;;;;;;14.23;12.70;;;19.70;99.90;;;;;;4944881;28;21521;-77
2021/06/23 04:22:23;;;;;;;14.17;12.67;;;19.70;99.90;;;;;;4943359;29;20223;-77
2021/06/23 04:24:49;;;;;;;15.40;13.07;;;19.80;99.90;;;;;;4946301;28;20278;-77
2021/06/23 04:27:15;;;;;;;15.63;12.57;;;19.70;99.90;;;;;;4943377;28;20943;-77
2021/06/23 04:29:41;;;;;;;13.10;11.70;;;19.70;99.90;;;;;;4942302;29;20471;-77
2021/06/23 04:32:07;;;;;;;14.33;12.37;;;20.00;99.90;;;;;;4940256;28;20305;-77
2021/06/23 04:34:32;;;;;;;16.60;13.10;;;19.90;99.90;;;;;;4944881;28;20198;-76
2021/06/23 04:36:58;;;;;;;13.97;12.50;;;20.10;99.90;;;;;;4944989;28;20435;-77
2021/06/23 04:39:23;;;;;;;13.47;12.00;;;20.10;99.90;;;;;;4943726;28;20282;-77
2021/06/23 04:41:49;;;;;;;15.90;13.17;;;20.10;99.90;;;;;;4943255;28;20226;-77
2021/06/23 04:44:14;;;;;;;15.67;13.57;;;19.90;99.90;;;;;;4944866;28;20950;-77
2021/06/23 04:46:40;;;;;;;17.00;14.40;;;20.10;99.90;;;;;;4945633;28;20202;-77
2021/06/23 04:49:06;;;;;;;14.13;12.67;;;19.80;99.90;;;;;;4945420;28;20628;-76
2021/06/23 04:51:31;;;;;;;15.37;13.87;;;19.80;99.90;;;;;;4943795;28;20207;-77
2021/06/23 04:53:57;;;;;;;15.03;12.40;;;19.90;99.90;;;;;;4944864;28;20262;-77
2021/06/23 04:56:23;;;;;;;15.70;14.10;;;19.70;99.90;;;;;;4945968;28;20610;-77
2021/06/23 04:58:48;;;;;;;15.20;13.60;;;19.70;99.90;;;;;;4946219;28;20202;-77
2021/06/23 05:01:14;;;;;;;19.70;15.90;;;19.80;99.90;;;;;;4946079;28;20278;-77
2021/06/23 05:03:40;;;;;;;22.43;16.17;;;19.70;99.90;;;;;;4945530;28;20217;-77
2021/06/23 05:06:06;;;;;;;21.30;16.67;;;19.70;99.90;;;;;;4947160;28;20245;-78
2021/06/23 05:08:31;;;;;;;21.77;17.20;;;19.70;99.90;;;;;;4944557;28;20779;-77
2021/06/23 05:10:57;;;;;;;19.23;16.40;;;19.70;99.90;;;;;;4943573;28;20219;-77
2021/06/23 05:13:24;;;;;;;19.70;16.27;;;19.80;99.90;;;;;;4945283;28;20198;-77
2021/06/23 05:15:51;;;;;;;19.67;16.63;;;19.90;99.90;;;;;;4945999;28;20243;-77
2021/06/23 05:18:17;;;;;;;20.73;15.90;;;19.70;99.90;;;;;;4945213;28;20537;-77
2021/06/23 05:20:43;;;;;;;18.73;15.80;;;19.90;99.90;;;;;;4942471;28;20504;-77
2021/06/23 05:23:09;;;;;;;19.80;17.50;;;20.10;99.90;;;;;;4945258;28;20238;-78
2021/06/23 05:25:35;;;;;;;19.43;17.43;;;19.90;99.90;;;;;;4947199;28;20435;-78
2021/06/23 05:28:01;;;;;;;18.67;16.47;;;19.80;99.90;;;;;;4948168;28;20187;-78
2021/06/23 05:30:27;;;;;;;20.23;16.97;;;19.90;99.90;;;;;;4947042;28;20850;-78
2021/06/23 05:32:53;;;;;;;19.13;16.50;;;19.90;99.90;;;;;;4947063;28;20203;-78
2021/06/23 05:35:20;;;;;;;19.00;16.23;;;20.00;99.90;;;;;;4944957;28;20465;-76
2021/06/23 05:37:46;;;;;;;21.90;18.00;;;19.90;99.90;;;;;;4959921;28;20195;-76
2021/06/23 05:40:12;;;;;;;25.03;19.00;;;19.70;99.90;;;;;;4946607;28;20445;-76
2021/06/23 05:42:38;;;;;;;21.63;18.17;;;19.70;99.90;;;;;;4943007;28;20481;-76
2021/06/23 05:45:05;;;;;;;21.13;19.10;;;19.60;99.90;;;;;;4945267;28;20462;-76
2021/06/23 05:47:30;;;;;;;20.73;18.53;;;19.80;99.90;;;;;;4945929;28;20599;-77
2021/06/23 05:49:56;;;;;;;25.67;20.10;;;19.80;99.90;;;;;;4946480;28;20445;-78
2021/06/23 05:52:22;;;;;;;23.10;19.47;;;20.00;99.90;;;;;;4945364;28;20207;-76
2021/06/23 05:54:47;;;;;;;23.87;20.60;;;20.10;99.90;;;;;;4944599;28;20199;-77
2021/06/23 05:57:13;;;;;;;24.70;21.20;;;20.20;99.90;;;;;;4946907;28;20187;-77
2021/06/23 05:59:39;;;;;;;23.40;19.87;;;20.20;99.90;;;;;;4945038;28;20187;-77
2021/06/23 06:02:04;;;;;;;23.67;19.53;;;20.10;99.90;;;;;;4944308;28;21028;-77
2021/06/23 06:04:30;;;;;;;21.80;19.13;;;20.40;99.90;;;;;;4939591;28;20206;-77
2021/06/23 06:06:55;;;;;;;20.27;18.20;;;20.40;99.90;;;;;;4942134;28;20195;-77
2021/06/23 06:09:21;;;;;;;19.50;17.50;;;20.50;99.90;;;;;;4945186;28;20203;-77
2021/06/23 06:11:47;;;;;;;18.07;16.13;;;20.50;99.90;;;;;;4945443;28;20349;-77
2021/06/23 06:14:12;;;;;;;19.43;17.13;;;20.60;99.90;;;;;;4946188;29;20190;-76
2021/06/23 06:16:38;;;;;;;17.10;14.67;;;20.50;99.90;;;;;;4945079;28;20214;-75
2021/06/23 06:19:04;;;;;;;17.87;16.00;;;20.70;99.90;;;;;;4944538;28;20222;-75
2021/06/23 06:21:29;;;;;;;19.43;16.03;;;20.80;99.90;;;;;;4945796;28;20563;-76
2021/06/23 06:23:55;;;;;;;17.97;16.17;;;20.90;99.90;;;;;;4941385;28;20654;-76
2021/06/23 06:26:21;;;;;;;18.60;16.00;;;21.00;99.90;;;;;;4937535;28;20188;-77
2021/06/23 06:28:46;;;;;;;19.43;16.70;;;20.80;99.90;;;;;;4943095;28;20202;-77
2021/06/23 06:31:12;;;;;;;19.07;17.03;;;21.00;99.90;;;;;;4941367;29;20212;-77
2021/06/23 06:33:38;;;;;;;16.93;15.13;;;21.20;99.90;;;;;;4942776;28;20286;-76
2021/06/23 06:36:05;;;;;;;21.03;17.17;;;21.10;99.90;;;;;;4924120;29;20204;-77
2021/06/23 06:38:31;;;;;;;18.17;15.97;;;21.30;99.90;;;;;;4942243;28;20191;-77
2021/06/23 06:40:56;;;;;;;17.70;15.30;;;21.20;99.90;;;;;;4943985;28;20816;-77
2021/06/23 06:43:22;;;;;;;18.10;16.20;;;21.30;99.90;;;;;;4945176;28;20223;-76
2021/06/23 06:45:50;;;;;;;17.97;16.07;;;21.30;99.90;;;;;;4945138;28;20206;-77
2021/06/23 06:48:17;;;;;;;20.37;18.10;;;21.30;99.90;;;;;;4945361;28;20653;-77
2021/06/23 06:50:43;;;;;;;17.17;15.37;;;21.20;99.90;;;;;;4950632;28;20438;-77
2021/06/23 06:53:08;;;;;;;18.57;15.33;;;21.30;99.90;;;;;;4948428;28;20968;-77
2021/06/23 06:55:34;;;;;;;17.70;15.90;;;21.40;99.90;;;;;;4947708;28;20199;-77
2021/06/23 06:58:00;;;;;;;16.67;14.13;;;21.40;99.90;;;;;;4949771;28;20202;-77
2021/06/23 07:00:25;;;;;;;15.53;14.00;;;21.30;99.90;;;;;;4949729;28;20206;-77
2021/06/23 07:02:54;;;;;;;20.13;16.00;;;21.40;99.90;;;;;;4949586;28;20218;-77
2021/06/23 07:05:21;;;;;;;21.57;17.10;;;21.10;99.90;;;;;;4948078;29;20211;-77
2021/06/23 07:07:47;;;;;;;16.90;15.20;;;21.20;99.90;;;;;;4948087;28;20806;-77
2021/06/23 07:10:12;;;;;;;21.83;15.80;;;21.20;99.90;;;;;;4950493;28;20445;-77
2021/06/23 07:12:38;;;;;;;21.30;16.87;;;21.20;99.90;;;;;;4948804;29;20207;-76
2021/06/23 07:15:05;;;;;;;20.43;17.33;;;21.20;99.90;;;;;;4948590;28;20784;-78
2021/06/23 07:17:31;;;;;;;17.20;15.40;;;21.20;99.90;;;;;;4949021;28;20210;-77
2021/06/23 07:19:56;;;;;;;17.87;15.30;;;21.10;99.90;;;;;;4948562;28;20445;-78
2021/06/23 07:22:23;;;;;;;16.00;14.47;;;21.20;99.90;;;;;;4948301;28;20230;-77
2021/06/23 07:24:50;;;;;;;18.27;15.20;;;21.10;99.90;;;;;;4947855;28;20217;-77
2021/06/23 07:27:16;;;;;;;17.83;16.00;;;21.10;99.90;;;;;;4947166;28;20438;-77
2021/06/23 07:29:41;;;;;;;19.03;14.57;;;21.10;99.90;;;;;;4947749;28;20427;-77
2021/06/23 07:32:15;;;;;;;17.20;13.80;;;21.30;99.90;;;;;;4947059;28;20215;-77
2021/06/23 07:37:13;;;;;;;19.80;14.20;;;21.40;99.90;;;;;;4938069;28;20796;-76
2021/06/23 07:39:39;;;;;;;14.17;12.67;;;21.50;99.90;;;;;;4943954;28;20506;-75
2021/06/23 07:42:07;;;;;;;15.50;14.03;;;21.50;99.90;;;;;;4943545;28;21048;-76
2021/06/23 07:44:38;;;;;;;16.00;14.27;;;21.60;99.90;;;;;;4942051;28;20195;-77
2021/06/23 07:47:15;;;;;;;16.07;14.50;;;21.60;99.90;;;;;;4946073;28;20443;-77
2021/06/23 07:49:42;;;;;;;19.13;16.50;;;21.60;99.90;;;;;;4946321;28;20426;-77
2021/06/23 07:55:04;;;;;;;20.43;16.70;;;21.40;99.90;;;;;;4944428;28;20585;-76
2021/06/23 08:08:52;;;;;;;18.70;15.87;;;21.30;99.90;;;;;;4946385;28;20434;-77
2021/06/23 08:11:23;;;;;;;18.93;16.90;;;21.30;99.90;;;;;;4946660;28;20960;-77
2021/06/23 08:13:49;;;;;;;17.87;15.97;;;21.20;99.90;;;;;;4944329;28;20455;-77
2021/06/23 08:16:15;;;;;;;18.43;16.47;;;21.30;99.90;;;;;;4944909;29;20438;-76
2021/06/23 08:18:41;;;;;;;18.63;16.80;;;21.20;99.90;;;;;;4946260;28;20426;-76
2021/06/23 08:21:07;;;;;;;21.83;17.63;;;21.30;99.90;;;;;;4941508;28;20495;-75
2021/06/23 08:23:33;;;;;;;18.63;16.83;;;21.30;99.90;;;;;;4942811;29;20214;-75
2021/06/23 08:25:59;;;;;;;22.63;17.23;;;21.30;99.90;;;;;;4944122;29;20219;-77
2021/06/23 08:28:24;;;;;;;19.80;17.80;;;21.40;99.90;;;;;;4945694;29;20587;-76
2021/06/23 08:30:50;;;;;;;18.33;16.47;;;21.50;99.90;;;;;;4944914;28;20195;-76
2021/06/23 08:33:16;;;;;;;20.80;18.60;;;21.70;99.90;;;;;;4945555;29;20270;-75
2021/06/23 08:35:42;;;;;;;22.17;18.30;;;21.80;99.90;;;;;;4944938;28;20563;-76
2021/06/23 08:38:07;;;;;;;20.80;18.17;;;21.50;99.90;;;;;;4943779;28;20206;-76
2021/06/23 08:40:34;;;;;;;18.53;16.13;;;21.60;99.90;;;;;;4944421;29;20199;-76
2021/06/23 08:42:59;;;;;;;18.10;16.20;;;21.90;99.90;;;;;;4944499;28;20497;-77
2021/06/23 08:45:25;;;;;;;16.83;15.13;;;22.10;99.90;;;;;;4945418;28;20431;-76
2021/06/23 08:47:51;;;;;;;19.40;16.60;;;22.20;99.90;;;;;;4945859;28;20402;-76
2021/06/23 08:50:22;;;;;;;18.93;16.80;;;22.10;99.90;;;;;;4946858;28;20755;-76
2021/06/23 08:52:48;;;;;;;18.23;16.30;;;22.30;99.90;;;;;;4945144;28;20269;-76
2021/06/23 08:55:19;;;;;;;18.50;16.60;;;22.50;99.90;;;;;;4947291;28;21218;-76
2021/06/23 08:57:54;;;;;;;17.60;15.70;;;22.40;99.90;;;;;;4960043;28;20818;-76
2021/06/23 09:00:24;;;;;;;19.97;17.90;;;22.40;99.90;;;;;;4944991;28;21173;-75
2021/06/23 09:02:49;;;;;;;19.00;17.10;;;22.40;99.90;;;;;;4948064;28;20526;-75
2021/06/23 09:05:18;;;;;;;19.13;17.13;;;22.20;99.90;;;;;;4946373;28;21722;-75
2021/06/23 09:08:00;;;;;;;20.73;17.00;;;22.40;99.90;;;;;;4945167;28;20301;-75
2021/06/23 09:10:26;;;;;;;18.17;16.27;;;22.30;99.90;;;;;;4943555;29;20447;-75
2021/06/23 09:13:03;;;;;;;20.37;16.43;;;22.50;99.90;;;;;;4943653;28;20954;-75
2021/06/23 09:15:52;;;;;;;15.90;14.30;;;22.30;99.90;;;;;;4943570;28;20550;-75
2021/06/23 09:18:24;;;;;;;14.67;13.27;;;22.70;99.90;;;;;;4940172;29;20561;-77
2021/06/23 09:20:56;;;;;;;16.53;14.77;;;22.90;99.90;;;;;;4942553;28;20455;-75
2021/06/23 09:23:41;;;;;;;14.37;13.07;;;22.90;99.90;;;;;;4944502;29;20474;-77
2021/06/23 09:26:21;;;;;;;16.80;15.10;;;23.10;99.90;;;;;;4939812;28;20450;-77
2021/06/23 09:29:16;;;;;;;16.20;13.77;;;23.30;99.90;;;;;;4945452;28;20454;-77
2021/06/23 09:32:04;;;;;;;15.10;13.73;;;23.10;99.90;;;;;;4945335;28;20497;-77
2021/06/23 09:34:41;;;;;;;14.63;13.13;;;23.10;99.90;;;;;;4944282;28;20969;-77
2021/06/23 09:37:31;;;;;;;14.83;13.43;;;23.30;99.90;;;;;;4943913;28;20439;-77
2021/06/23 09:40:12;;;;;;;15.13;13.53;;;22.90;99.90;;;;;;4944181;28;20463;-77
2021/06/23 09:42:40;;;;;;;14.33;12.43;;;22.70;99.90;;;;;;4944413;28;21872;-77
2021/06/23 09:45:08;;;;;;;12.13;11.03;;;22.80;99.90;;;;;;4943466;28;20534;-77
2021/06/23 09:47:36;;;;;;;12.60;11.33;;;23.00;99.90;;;;;;4938370;28;20454;-77
2021/06/23 09:50:03;;;;;;;12.83;11.67;;;23.10;99.90;;;;;;4942806;28;20523;-77
2021/06/23 09:52:29;;;;;;;12.10;11.00;;;23.10;99.90;;;;;;4943264;28;21246;-77
2021/06/23 09:54:55;;;;;;;11.80;10.60;;;23.30;99.90;;;;;;4942968;28;20637;-76
2021/06/23 09:57:21;;;;;;;12.43;11.30;;;23.50;99.90;;;;;;4943266;28;20199;-76
2021/06/23 09:59:56;;;;;;;9.73;8.90;;;23.50;99.90;;;;;;4945478;28;20769;-77
2021/06/23 10:02:32;;;;;;;10.70;9.70;;;23.30;99.90;;;;;;4944788;28;20573;-77
2021/06/23 10:05:21;;;;;;;9.20;8.40;;;23.40;99.90;;;;;;4943022;28;20427;-77
2021/06/23 10:07:49;;;;;;;8.63;7.93;;;23.40;99.90;;;;;;4937082;28;20451;-77
2021/06/23 10:10:17;;;;;;;9.40;8.60;;;23.50;99.90;;;;;;4941482;28;21135;-77
2021/06/23 10:12:53;;;;;;;10.60;9.70;;;23.60;99.90;;;;;;4958746;28;20455;-76
2021/06/23 10:15:20;;;;;;;9.90;9.00;;;23.80;99.90;;;;;;4943273;28;20431;-77
2021/06/23 10:17:46;;;;;;;9.03;8.23;;;24.00;99.90;;;;;;4944466;28;20445;-77
2021/06/23 10:20:14;;;;;;;10.10;9.20;;;24.20;99.90;;;;;;4949129;28;20443;-77
2021/06/23 10:22:44;;;;;;;8.73;7.97;;;24.20;99.90;;;;;;4948289;28;20561;-77
2021/06/23 10:25:12;;;;;;;8.10;7.30;;;24.30;99.90;;;;;;4944721;29;21001;-77
2021/06/23 10:27:49;;;;;;;8.40;7.70;;;24.50;99.90;;;;;;4946786;28;20522;-77
2021/06/23 10:30:15;;;;;;;9.87;8.97;;;24.80;99.90;;;;;;4960361;28;20462;-76
2021/06/23 10:32:42;;;;;;;8.13;7.53;;;24.70;99.90;;;;;;4947067;28;20462;-76
2021/06/23 10:35:09;;;;;;;7.80;7.17;;;24.70;99.90;;;;;;4944427;28;20509;-77
2021/06/23 10:37:38;;;;;;;8.03;7.33;;;24.80;99.90;;;;;;4946281;28;20493;-77
2021/06/23 10:40:09;;;;;;;6.87;6.27;;;24.90;99.90;;;;;;4948906;28;20458;-77
2021/06/23 10:42:35;;;;;;;7.30;6.70;;;25.30;99.90;;;;;;4942938;29;20474;-75
2021/06/23 10:45:02;;;;;;;6.57;5.83;;;25.40;99.90;;;;;;4947950;28;20438;-74
2021/06/23 10:47:49;;;;;;;6.77;6.17;;;25.50;99.90;;;;;;4943725;28;21900;-75
2021/06/23 10:50:28;;;;;;;6.47;5.87;;;25.50;99.90;;;;;;4947110;28;20442;-75
2021/06/23 10:52:54;;;;;;;7.47;6.77;;;25.70;99.90;;;;;;4943574;28;20486;-75
2021/06/23 10:55:23;;;;;;;6.57;6.03;;;25.70;99.90;;;;;;4948730;28;20440;-75
2021/06/23 10:57:54;;;;;;;6.77;6.17;;;25.80;99.90;;;;;;4945333;28;20783;-76
2021/06/23 11:00:21;;;;;;;7.13;6.37;;;25.70;99.90;;;;;;4947030;28;20477;-77
2021/06/23 11:02:49;;;;;;;7.03;6.30;;;25.80;99.90;;;;;;4947862;28;20471;-75
2021/06/23 11:05:22;;;;;;;5.87;5.37;;;25.90;99.90;;;;;;4947730;28;20469;-75
2021/06/23 11:07:55;;;;;;;8.30;7.60;;;26.10;99.90;;;;;;4940921;28;20432;-76
2021/06/23 11:10:36;;;;;;;7.97;7.27;;;26.30;99.90;;;;;;4948020;28;21047;-76
2021/06/23 11:13:06;;;;;;;6.70;6.10;;;26.20;99.90;;;;;;4947943;28;20458;-76
2021/06/23 11:15:32;;;;;;;8.27;7.50;;;26.60;99.90;;;;;;4948318;29;20458;-76
2021/06/23 11:18:18;;;;;;;6.23;5.70;;;26.80;99.90;;;;;;4947227;28;20477;-75
2021/06/23 11:20:57;;;;;;;7.03;6.33;;;26.90;99.90;;;;;;4947490;28;21813;-76
2021/06/23 11:23:47;;;;;;;6.80;6.20;;;26.90;99.90;;;;;;4948490;28;20589;-76
2021/06/23 11:26:18;;;;;;;10.73;9.80;;;26.70;99.90;;;;;;4945615;28;20434;-75
2021/06/23 11:28:46;;;;;;;7.77;7.17;;;26.90;99.90;;;;;;4947160;28;20450;-75
2021/06/23 11:31:11;;;;;;;8.13;7.53;;;26.90;99.90;;;;;;4946027;28;20467;-76
2021/06/23 11:33:38;;;;;;;7.50;6.90;;;26.90;99.90;;;;;;4928929;29;20459;-76
2021/06/23 11:36:10;;;;;;;7.90;7.20;;;27.00;99.90;;;;;;4928103;29;20439;-76
2021/06/23 11:38:37;;;;;;;7.30;6.70;;;27.10;99.90;;;;;;4927627;29;20672;-76
2021/06/23 11:41:06;;;;;;;8.33;7.57;;;26.90;99.90;;;;;;4926106;29;20486;-75
2021/06/23 11:43:32;;;;;;;7.13;6.40;;;27.00;99.90;;;;;;4924206;29;20471;-77
2021/06/23 11:45:58;;;;;;;6.10;5.70;;;27.30;99.90;;;;;;4925933;29;20446;-78
2021/06/23 11:48:24;;;;;;;7.23;6.63;;;27.40;99.90;;;;;;4921442;29;20919;-76
2021/06/23 11:50:51;;;;;;;6.27;5.83;;;27.30;99.90;;;;;;4925464;29;20192;-76
2021/06/23 11:53:18;;;;;;;6.20;5.70;;;27.50;99.90;;;;;;4927166;29;20463;-76
2021/06/23 11:55:45;;;;;;;6.57;6.07;;;27.60;99.90;;;;;;4928555;29;20449;-77
2021/06/23 11:58:11;;;;;;;6.70;6.20;;;28.00;99.90;;;;;;4924155;29;20451;-76
2021/06/23 12:00:38;;;;;;;6.70;6.20;;;28.40;99.90;;;;;;4926819;29;20442;-77
2021/06/23 12:03:06;;;;;;;7.77;7.17;;;28.90;99.90;;;;;;4924406;29;20488;-75
2021/06/23 12:05:32;;;;;;;8.03;7.40;;;28.80;99.90;;;;;;4927550;29;20534;-76
2021/06/23 12:08:00;;;;;;;7.07;6.47;;;28.80;99.90;;;;;;4923373;29;20502;-76
2021/06/23 12:10:27;;;;;;;7.33;6.83;;;28.40;99.90;;;;;;4908350;29;20222;-76
2021/06/23 12:12:54;;;;;;;7.40;6.70;;;28.40;99.90;;;;;;4927004;29;20478;-76
2021/06/23 12:15:21;;;;;;;7.40;6.80;;;28.60;99.90;;;;;;4924187;29;20491;-76
2021/06/23 12:17:55;;;;;;;6.97;6.37;;;30.30;99.90;;;;;;4928033;29;20564;-76
2021/06/23 12:20:25;;;;;;;7.23;6.53;;;31.20;99.90;;;;;;4926415;29;20435;-76
2021/06/23 12:22:59;;;;;;;7.07;6.57;;;31.50;99.90;;;;;;4925061;29;21356;-77
2021/06/23 12:25:46;;;;;;;7.67;7.03;;;31.40;99.90;;;;;;4908077;29;20457;-76
2021/06/23 12:28:14;;;;;;;8.20;7.40;;;31.30;99.90;;;;;;4922050;29;20499;-76
2021/06/23 12:30:40;;;;;;;6.70;6.20;;;31.20;99.90;;;;;;4922889;29;20499;-76
2021/06/23 12:33:10;;;;;;;7.67;7.07;;;31.30;99.90;;;;;;4924959;29;20448;-77
2021/06/23 12:35:36;;;;;;;5.97;5.47;;;31.80;99.90;;;;;;4904966;29;20616;-77
2021/06/23 12:38:06;;;;;;;6.57;5.87;;;31.80;99.90;;;;;;4925566;29;20436;-77
2021/06/23 12:40:32;;;;;;;6.50;5.73;;;32.40;99.90;;;;;;4923628;29;20471;-77
2021/06/23 12:42:59;;;;;;;6.40;5.90;;;32.50;99.90;;;;;;4925114;29;21175;-77
2021/06/23 12:45:26;;;;;;;10.37;9.53;;;31.80;99.90;;;;;;4893134;29;20482;-77
2021/06/23 12:47:51;;;;;;;8.77;8.07;;;31.30;99.90;;;;;;4910520;29;20807;-76
2021/06/23 12:50:17;;;;;;;8.90;7.30;;;30.60;99.90;;;;;;4908449;29;20448;-77
2021/06/23 12:52:48;;;;;;;7.50;6.80;;;30.30;99.90;;;;;;4926862;29;20220;-76